createdAt,value
2022-09-07T00:01:47.157Z,13.72
2022-09-07T00:04:20.582Z,13.71
2022-09-07T00:06:54.302Z,13.66
2022-09-07T00:09:28.017Z,13.63
2022-09-07T00:12:01.445Z,13.65
2022-09-07T00:14:35.719Z,13.67
2022-09-07T00:17:09.310Z,13.64
2022-09-07T00:19:43.018Z,13.62
2022-09-07T00:22:16.602Z,13.55
2022-09-07T00:24:50.168Z,13.53
2022-09-07T00:27:23.869Z,13.51
2022-09-07T00:29:57.393Z,13.48
2022-09-07T00:32:31.065Z,13.43
2022-09-07T00:35:05.222Z,13.39
2022-09-07T00:37:38.529Z,13.39
2022-09-07T00:40:13.124Z,13.35
2022-09-07T00:42:46.719Z,13.30
2022-09-07T00:45:21.252Z,13.27
2022-09-07T00:48:00.993Z,13.26
2022-09-07T00:50:39.654Z,13.27
2022-09-07T00:53:18.119Z,13.26
2022-09-07T00:55:54.224Z,13.25
2022-09-07T00:58:29.512Z,13.23
2022-09-07T01:01:03.097Z,13.17
2022-09-07T01:03:41.640Z,13.14
2022-09-07T01:06:18.852Z,13.12
2022-09-07T01:08:53.806Z,13.08
2022-09-07T01:11:27.334Z,13.05
2022-09-07T01:14:00.735Z,13.04
2022-09-07T01:16:48.341Z,13.04
2022-09-07T01:19:49.573Z,13.03
2022-09-07T01:22:44.055Z,12.96
2022-09-07T01:25:31.111Z,12.92
2022-09-07T01:28:22.289Z,12.93
2022-09-07T01:30:59.570Z,12.91
2022-09-07T01:33:45.326Z,12.88
2022-09-07T01:36:29.580Z,12.84
2022-09-07T01:39:05.456Z,12.85
2022-09-07T01:41:45.631Z,12.85
2022-09-07T01:44:23.657Z,12.80
2022-09-07T01:47:03.189Z,12.72
2022-09-07T01:49:42.309Z,12.67
2022-09-07T01:52:24.990Z,12.64
2022-09-07T01:55:05.747Z,12.63
2022-09-07T01:57:44.131Z,12.64
2022-09-07T02:00:21.812Z,12.63
2022-09-07T02:03:00.876Z,12.63
2022-09-07T02:05:41.049Z,12.60
2022-09-07T02:08:19.777Z,12.56
2022-09-07T02:10:57.309Z,12.50
2022-09-07T02:13:35.666Z,12.46
2022-09-07T02:16:12.695Z,12.44
2022-09-07T02:18:49.446Z,12.45
2022-09-07T02:21:28.263Z,12.44
2022-09-07T02:24:07.246Z,12.41
2022-09-07T02:26:41.034Z,12.41
2022-09-07T02:29:14.916Z,12.34
2022-09-07T02:31:48.530Z,12.30
2022-09-07T02:34:22.454Z,12.27
2022-09-07T02:36:57.776Z,12.28
2022-09-07T02:39:31.430Z,12.25
2022-09-07T02:42:04.743Z,12.17
2022-09-07T02:44:41.738Z,12.14
2022-09-07T02:47:28.778Z,12.17
2022-09-07T02:50:30.926Z,12.18
2022-09-07T02:53:29.513Z,12.18
2022-09-07T02:56:13.990Z,12.16
2022-09-07T02:58:57.105Z,12.13
2022-09-07T03:01:41.859Z,12.12
2022-09-07T03:04:25.939Z,12.12
2022-09-07T03:07:06.038Z,12.09
2022-09-07T03:09:44.468Z,12.04
2022-09-07T03:12:18.296Z,11.99
2022-09-07T03:14:51.904Z,11.96
2022-09-07T03:17:25.411Z,11.90
2022-09-07T03:19:58.923Z,11.86
2022-09-07T03:22:34.309Z,11.82
2022-09-07T03:25:09.542Z,11.80
2022-09-07T03:27:43.861Z,11.78
2022-09-07T03:30:18.450Z,11.79
2022-09-07T03:32:52.114Z,11.80
2022-09-07T03:35:25.692Z,11.80
2022-09-07T03:37:59.297Z,11.78
2022-09-07T03:40:32.599Z,11.74
2022-09-07T03:43:06.108Z,11.72
2022-09-07T03:45:39.667Z,11.67
2022-09-07T03:48:13.304Z,11.66
2022-09-07T03:50:46.977Z,11.60
2022-09-07T03:53:20.435Z,11.58
2022-09-07T03:56:05.183Z,11.57
2022-09-07T03:58:39.229Z,11.57
2022-09-07T04:01:15.603Z,11.58
2022-09-07T04:03:50.232Z,11.59
2022-09-07T04:06:23.951Z,11.56
2022-09-07T04:08:57.825Z,11.58
2022-09-07T04:11:32.246Z,11.57
2022-09-07T04:14:06.301Z,11.53
2022-09-07T04:16:40.013Z,11.50
2022-09-07T04:19:14.513Z,11.46
2022-09-07T04:21:48.386Z,11.44
2022-09-07T04:24:22.039Z,11.42
2022-09-07T04:26:56.150Z,11.43
2022-09-07T04:29:33.207Z,11.45
2022-09-07T04:32:07.035Z,11.45
2022-09-07T04:34:40.791Z,11.46
2022-09-07T04:37:14.547Z,11.49
2022-09-07T04:39:48.513Z,11.49
2022-09-07T04:42:22.321Z,11.48
2022-09-07T04:44:55.625Z,11.49
2022-09-07T04:47:31.122Z,11.54
2022-09-07T04:50:04.745Z,11.53
2022-09-07T04:52:38.272Z,11.48
2022-09-07T04:55:13.368Z,11.47
2022-09-07T04:57:46.991Z,11.53
2022-09-07T05:00:21.040Z,11.55
2022-09-07T05:02:54.578Z,11.59
2022-09-07T05:05:28.108Z,11.69
2022-09-07T05:08:01.419Z,11.77
2022-09-07T05:10:35.407Z,11.88
2022-09-07T05:13:09.419Z,11.93
2022-09-07T05:15:43.560Z,12.05
2022-09-07T05:18:17.425Z,12.17
2022-09-07T05:20:50.703Z,12.26
2022-09-07T05:23:24.748Z,12.27
2022-09-07T05:25:58.101Z,12.26
2022-09-07T05:28:31.906Z,12.36
2022-09-07T05:31:18.964Z,12.43
2022-09-07T05:36:48.112Z,12.58
2022-09-07T05:39:22.240Z,12.68
2022-09-07T05:41:55.771Z,12.82
2022-09-07T05:44:45.119Z,13.03
2022-09-07T05:47:19.880Z,13.46
2022-09-07T05:49:57.263Z,13.65
2022-09-07T05:52:30.905Z,13.64
2022-09-07T05:55:26.244Z,13.68
2022-09-07T05:57:57.871Z,13.73
2022-09-07T06:00:32.048Z,13.81
2022-09-07T06:03:06.115Z,13.88
2022-09-07T06:05:39.944Z,13.95
2022-09-07T06:08:14.122Z,14.00
2022-09-07T06:10:47.729Z,14.06
2022-09-07T06:13:21.401Z,14.17
2022-09-07T06:15:55.080Z,14.29
2022-09-07T06:18:33.188Z,14.45
2022-09-07T06:21:11.020Z,14.75
2022-09-07T06:23:45.672Z,15.00
2022-09-07T06:26:20.510Z,15.53
2022-09-07T06:28:57.630Z,16.78
2022-09-07T06:31:31.975Z,18.78
2022-09-07T06:34:05.869Z,20.30
2022-09-07T06:36:39.229Z,21.96
2022-09-07T06:39:13.499Z,23.73
2022-09-07T06:42:01.830Z,25.68
2022-09-07T06:44:37.376Z,27.22
2022-09-07T06:47:11.524Z,27.82
2022-09-07T06:49:44.882Z,28.12
2022-09-07T06:52:18.513Z,28.91
2022-09-07T06:54:59.890Z,30.49
2022-09-07T06:57:34.216Z,31.85
2022-09-07T07:00:09.327Z,32.83
2022-09-07T07:02:42.911Z,33.92
2022-09-07T07:05:16.722Z,34.78
2022-09-07T07:07:50.384Z,35.72
2022-09-07T07:10:24.974Z,36.51
2022-09-07T07:12:58.945Z,36.61
2022-09-07T07:15:33.738Z,35.58
2022-09-07T07:18:20.233Z,34.08
2022-09-07T07:20:54.933Z,32.17
2022-09-07T07:23:28.732Z,31.11
2022-09-07T07:26:06.757Z,30.44
2022-09-07T07:31:35.405Z,29.19
2022-09-07T07:34:09.510Z,28.85
2022-09-07T07:36:43.413Z,28.59
2022-09-07T07:42:12.666Z,28.45
2022-09-07T07:44:46.443Z,28.17
2022-09-07T07:47:20.400Z,27.66
2022-09-07T07:50:30.765Z,27.26
2022-09-07T07:53:39.594Z,27.49
2022-09-07T07:55:44.730Z,28.93
2022-09-07T07:58:18.647Z,30.62
2022-09-07T08:00:56.307Z,32.12
2022-09-07T08:03:30.489Z,33.83
2022-09-07T08:06:08.713Z,34.39
2022-09-07T08:08:43.482Z,35.04
2022-09-07T08:11:19.390Z,35.64
2022-09-07T08:13:55.202Z,35.41
2022-09-07T08:16:29.063Z,35.49
2022-09-07T08:19:02.821Z,35.27
2022-09-07T08:21:36.170Z,34.68
2022-09-07T08:24:10.629Z,34.83
2022-09-07T08:26:44.265Z,35.18
2022-09-07T08:29:18.440Z,35.01
2022-09-07T08:31:52.566Z,34.00
2022-09-07T08:34:26.255Z,32.86
2022-09-07T08:37:00.165Z,31.47
2022-09-07T08:39:33.911Z,30.72
2022-09-07T08:42:33.514Z,31.26
2022-09-07T08:45:13.572Z,31.51
2022-09-07T08:47:51.573Z,31.33
2022-09-07T08:50:29.845Z,30.51
2022-09-07T08:53:09.347Z,29.63
2022-09-07T08:55:49.091Z,28.40
2022-09-07T08:58:47.558Z,27.44
2022-09-07T09:01:36.695Z,26.73
2022-09-07T09:04:20.572Z,26.34
2022-09-07T09:07:14.101Z,26.08
2022-09-07T09:10:05.783Z,25.59
2022-09-07T09:12:57.311Z,25.19
2022-09-07T09:15:42.627Z,24.98
2022-09-07T09:18:25.726Z,24.68
2022-09-07T09:21:00.995Z,23.95
2022-09-07T09:23:40.973Z,23.60
2022-09-07T09:26:20.786Z,23.17
2022-09-07T09:28:54.369Z,22.83
2022-09-07T09:31:30.495Z,22.54
2022-09-07T09:34:15.066Z,22.34
2022-09-07T09:36:53.162Z,22.11
2022-09-07T09:39:34.279Z,21.86
2022-09-07T09:42:25.186Z,21.69
2022-09-07T09:45:07.627Z,21.67
2022-09-07T09:47:41.955Z,21.93
2022-09-07T09:53:29.799Z,21.88
2022-09-07T09:56:05.159Z,21.87
2022-09-07T10:01:36.811Z,21.95
2022-09-07T10:04:35.214Z,22.10
2022-09-07T10:07:19.305Z,22.10
2022-09-07T10:09:56.971Z,22.14
2022-09-07T10:12:34.822Z,22.31
2022-09-07T10:15:33.669Z,22.81
2022-09-07T10:18:19.671Z,22.95
2022-09-07T10:20:53.317Z,22.87
2022-09-07T10:23:29.164Z,22.66
2022-09-07T10:26:21.417Z,22.55
2022-09-07T10:29:14.710Z,22.57
2022-09-07T10:32:07.731Z,22.37
2022-09-07T10:34:52.832Z,22.19
2022-09-07T10:37:35.910Z,22.19
2022-09-07T10:40:23.554Z,22.15
2022-09-07T10:43:23.539Z,22.12
2022-09-07T10:49:24.355Z,22.05
2022-09-07T10:52:07.944Z,22.10
2022-09-07T10:54:51.959Z,22.04
2022-09-07T10:57:53.324Z,21.89
2022-09-07T11:00:31.953Z,21.99
2022-09-07T11:03:25.577Z,22.04
2022-09-07T11:06:12.609Z,21.86
2022-09-07T11:09:21.947Z,21.84
2022-09-07T11:12:03.601Z,22.01
2022-09-07T11:14:44.001Z,22.09
2022-09-07T11:17:23.099Z,22.30
2022-09-07T11:20:05.377Z,22.37
2022-09-07T11:22:44.690Z,22.45
2022-09-07T11:25:30.181Z,22.68
2022-09-07T11:28:10.706Z,22.78
2022-09-07T11:30:50.180Z,22.71
2022-09-07T11:33:28.308Z,22.59
2022-09-07T11:36:12.283Z,22.45
2022-09-07T11:38:51.634Z,22.47
2022-09-07T11:41:29.623Z,22.34
2022-09-07T11:44:08.007Z,22.35
2022-09-07T11:46:45.973Z,22.63
2022-09-07T11:49:23.564Z,23.54
2022-09-07T11:52:04.971Z,24.18
2022-09-07T11:54:53.969Z,24.46
2022-09-07T11:57:55.447Z,24.48
2022-09-07T12:00:42.739Z,24.16
2022-09-07T12:03:33.317Z,23.85
2022-09-07T12:06:45.493Z,23.60
2022-09-07T12:09:38.478Z,24.18
2022-09-07T12:12:36.624Z,25.68
2022-09-07T12:15:25.510Z,26.88
2022-09-07T12:18:14.958Z,28.31
2022-09-07T12:20:50.402Z,29.86
2022-09-07T12:23:31.340Z,30.80
2022-09-07T12:26:39.853Z,31.54
2022-09-07T12:29:30.465Z,30.92
2022-09-07T12:34:59.747Z,28.82
2022-09-07T12:37:49.665Z,27.93
2022-09-07T12:41:00.883Z,27.20
2022-09-07T12:44:07.659Z,26.90
2022-09-07T12:47:02.405Z,26.68
2022-09-07T12:50:07.049Z,26.55
2022-09-07T12:52:56.493Z,26.21
2022-09-07T12:59:02.453Z,25.39
2022-09-07T13:01:52.361Z,25.22
2022-09-07T13:04:55.489Z,25.17
2022-09-07T13:08:08.002Z,25.13
2022-09-07T13:10:43.936Z,25.52
2022-09-07T13:20:03.735Z,25.15
2022-09-07T13:23:22.258Z,24.89
2022-09-07T13:25:59.250Z,24.61
2022-09-07T13:28:54.928Z,24.54
2022-09-07T13:31:45.632Z,24.48
2022-09-07T13:34:58.731Z,24.29
2022-09-07T13:37:37.029Z,23.96
2022-09-07T13:40:16.889Z,23.80
2022-09-07T13:42:52.566Z,23.74
2022-09-07T13:45:45.999Z,23.69
2022-09-07T13:48:26.982Z,23.73
2022-09-07T13:51:08.389Z,23.67
2022-09-07T13:54:05.936Z,23.71
2022-09-07T13:56:51.012Z,23.64
2022-09-07T13:59:28.609Z,23.68
2022-09-07T14:02:03.040Z,23.65
2022-09-07T14:04:41.168Z,23.61
2022-09-07T14:07:19.140Z,23.65
2022-09-07T14:10:05.329Z,23.69
2022-09-07T14:12:47.375Z,23.72
2022-09-07T14:15:29.823Z,23.68
2022-09-07T14:18:12.685Z,23.45
2022-09-07T14:20:49.852Z,23.31
2022-09-07T14:23:28.888Z,23.33
2022-09-07T14:26:20.755Z,23.32
2022-09-07T14:28:55.855Z,23.34
2022-09-07T14:31:30.933Z,23.33
2022-09-07T14:34:04.816Z,23.37
2022-09-07T14:36:45.870Z,23.44
2022-09-07T14:39:22.980Z,23.47
2022-09-07T14:41:56.606Z,23.49
2022-09-07T14:44:41.089Z,23.40
2022-09-07T14:47:29.271Z,23.29
2022-09-07T14:50:06.527Z,23.30
2022-09-07T14:53:33.640Z,23.27
2022-09-07T14:55:39.267Z,23.13
2022-09-07T14:58:25.401Z,23.11
2022-09-07T15:04:20.427Z,23.07
2022-09-07T15:07:01.587Z,22.96
2022-09-07T15:09:40.577Z,22.91
2022-09-07T15:12:36.094Z,22.92
2022-09-07T15:15:26.141Z,22.90
2022-09-07T15:18:08.255Z,22.85
2022-09-07T15:20:44.563Z,22.83
2022-09-07T15:23:20.318Z,22.85
2022-09-07T15:25:54.437Z,22.80
2022-09-07T15:31:56.867Z,22.72
2022-09-07T15:34:24.621Z,22.66
2022-09-07T15:37:01.045Z,22.62
2022-09-07T15:39:35.987Z,22.60
2022-09-07T15:45:05.668Z,22.46
2022-09-07T15:47:43.965Z,22.40
2022-09-07T15:50:23.702Z,22.30
2022-09-07T15:52:57.557Z,22.26
2022-09-07T15:55:34.562Z,22.22
2022-09-07T15:58:11.843Z,22.17
2022-09-07T16:00:46.368Z,22.12
2022-09-07T16:03:20.138Z,22.03
2022-09-07T16:05:54.049Z,22.00
2022-09-07T16:08:32.790Z,21.98
2022-09-07T16:11:18.537Z,21.90
2022-09-07T16:13:56.370Z,21.86
2022-09-07T16:19:23.971Z,21.78
2022-09-07T16:21:57.788Z,21.74
2022-09-07T16:24:31.592Z,21.70
2022-09-07T16:27:05.168Z,21.70
2022-09-07T16:29:38.947Z,21.69
2022-09-07T16:35:06.637Z,21.58
2022-09-07T16:38:43.630Z,21.51
2022-09-07T16:40:33.958Z,21.43
2022-09-07T16:43:07.103Z,21.38
2022-09-07T16:48:35.778Z,21.33
2022-09-07T16:51:11.369Z,21.28
2022-09-07T16:53:45.195Z,21.24
2022-09-07T16:56:20.680Z,21.17
2022-09-07T16:58:56.561Z,21.09
2022-09-07T17:01:32.308Z,21.02
2022-09-07T17:04:10.731Z,20.97
2022-09-07T17:06:45.459Z,20.93
2022-09-07T17:09:19.222Z,20.90
2022-09-07T17:11:52.534Z,20.86
2022-09-07T17:14:28.615Z,20.79
2022-09-07T17:17:02.140Z,20.71
2022-09-07T17:19:36.266Z,20.61
2022-09-07T17:22:09.996Z,20.51
2022-09-07T17:24:43.845Z,20.40
2022-09-07T17:27:17.881Z,20.31
2022-09-07T17:29:53.795Z,20.24
2022-09-07T17:32:28.950Z,20.18
2022-09-07T17:35:02.745Z,20.08
2022-09-07T17:37:36.845Z,20.03
2022-09-07T17:40:12.955Z,19.95
2022-09-07T17:45:44.958Z,19.81
2022-09-07T17:48:18.688Z,19.76
2022-09-07T17:51:01.421Z,19.70
2022-09-07T17:53:35.175Z,19.65
2022-09-07T17:56:10.763Z,19.60
2022-09-07T17:58:45.426Z,19.54
2022-09-07T18:01:20.505Z,19.46
2022-09-07T18:03:55.020Z,19.41
2022-09-07T18:06:30.299Z,19.39
2022-09-07T18:09:07.483Z,19.34
2022-09-07T18:11:45.989Z,19.28
2022-09-07T18:14:21.625Z,19.23
2022-09-07T18:16:55.261Z,19.17
2022-09-07T18:19:28.623Z,19.13
2022-09-07T18:22:04.630Z,19.08
2022-09-07T18:24:38.812Z,19.05
2022-09-07T18:27:13.019Z,19.00
2022-09-07T18:29:46.743Z,18.97
2022-09-07T18:32:20.234Z,18.94
2022-09-07T18:34:54.215Z,18.89
2022-09-07T18:37:28.324Z,18.85
2022-09-07T18:40:06.794Z,18.83
2022-09-07T18:42:42.743Z,18.78
2022-09-07T18:45:32.500Z,18.73
2022-09-07T18:48:07.139Z,18.71
2022-09-07T18:50:42.270Z,18.67
2022-09-07T18:53:17.027Z,18.62
2022-09-07T18:55:51.048Z,18.59
2022-09-07T18:58:25.018Z,18.56
2022-09-07T19:00:59.704Z,18.52
2022-09-07T19:03:34.860Z,18.50
2022-09-07T19:06:11.101Z,18.48
2022-09-07T19:08:47.772Z,18.46
2022-09-07T19:11:24.649Z,18.41
2022-09-07T19:14:04.819Z,18.38
2022-09-07T19:16:39.194Z,18.38
2022-09-07T19:19:16.227Z,18.36
2022-09-07T19:21:50.466Z,18.36
2022-09-07T19:24:24.170Z,18.35
2022-09-07T19:27:00.627Z,18.30
2022-09-07T19:29:35.501Z,18.27
2022-09-07T19:32:12.616Z,18.29
2022-09-07T19:34:48.181Z,18.30
2022-09-07T19:37:26.215Z,18.30
2022-09-07T19:40:00.591Z,18.28
2022-09-07T19:42:34.792Z,18.30
2022-09-07T19:45:11.029Z,18.29
2022-09-07T19:47:44.811Z,18.30
2022-09-07T19:50:20.266Z,18.30
2022-09-07T19:52:54.303Z,18.30
2022-09-07T19:55:28.827Z,18.30
2022-09-07T19:58:02.757Z,18.28
2022-09-07T20:03:31.756Z,18.24
2022-09-07T20:06:11.346Z,18.21
2022-09-07T20:08:45.910Z,18.19
2022-09-07T20:11:20.819Z,18.18
2022-09-07T20:13:54.933Z,18.17
2022-09-07T20:16:29.466Z,18.14
2022-09-07T20:19:03.906Z,18.14
2022-09-07T20:21:38.787Z,18.14
2022-09-07T20:24:15.033Z,18.11
2022-09-07T20:26:48.946Z,18.07
2022-09-07T20:29:29.690Z,18.05
2022-09-07T20:32:04.014Z,18.04
2022-09-07T20:34:38.065Z,18.02
2022-09-07T20:37:11.622Z,18.00
2022-09-07T20:39:45.383Z,17.98
2022-09-07T20:42:19.297Z,17.92
2022-09-07T20:44:53.893Z,17.87
2022-09-07T20:47:27.272Z,17.86
2022-09-07T20:50:00.641Z,17.85
2022-09-07T20:52:34.103Z,17.85
2022-09-07T20:55:08.881Z,17.82
2022-09-07T20:57:42.222Z,17.76
2022-09-07T21:00:16.392Z,17.70
2022-09-07T21:02:50.260Z,17.61
2022-09-07T21:05:24.141Z,17.60
2022-09-07T21:07:58.176Z,17.59
2022-09-07T21:10:31.740Z,17.58
2022-09-07T21:13:05.358Z,17.53
2022-09-07T21:15:42.990Z,17.50
2022-09-07T21:18:18.270Z,17.47
2022-09-07T21:21:18.843Z,17.44
2022-09-07T21:23:58.443Z,17.39
2022-09-07T21:26:32.558Z,17.32
2022-09-07T21:29:06.803Z,17.30
2022-09-07T21:31:40.884Z,17.26
2022-09-07T21:34:14.842Z,17.22
2022-09-07T21:36:48.435Z,17.22
2022-09-07T21:39:22.587Z,17.23
2022-09-07T21:41:56.146Z,17.24
2022-09-07T21:44:29.569Z,17.23
2022-09-07T21:47:03.074Z,17.21
2022-09-07T21:49:36.763Z,17.15
2022-09-07T21:52:10.277Z,17.11
2022-09-07T21:54:44.710Z,17.08
2022-09-07T21:57:18.157Z,17.03
2022-09-07T21:59:51.827Z,16.97
2022-09-07T22:02:25.713Z,16.93
2022-09-07T22:04:59.361Z,16.91
2022-09-07T22:07:32.643Z,16.90
2022-09-07T22:10:06.924Z,16.88
2022-09-07T22:12:40.109Z,16.84
2022-09-07T22:15:14.399Z,16.82
2022-09-07T22:17:48.229Z,16.82
2022-09-07T22:20:21.889Z,16.80
2022-09-07T22:22:55.513Z,16.78
2022-09-07T22:25:28.777Z,16.76
2022-09-07T22:28:02.297Z,16.74
2022-09-07T22:30:35.508Z,16.71
2022-09-07T22:33:09.189Z,16.68
2022-09-07T22:35:42.473Z,16.63
2022-09-07T22:38:16.105Z,16.55
2022-09-07T22:40:49.671Z,16.54
2022-09-07T22:43:23.155Z,16.51
2022-09-07T22:45:56.553Z,16.47
2022-09-07T22:48:30.890Z,16.44
2022-09-07T22:51:05.584Z,16.43
2022-09-07T22:53:41.716Z,16.42
2022-09-07T22:56:17.351Z,16.40
2022-09-07T22:58:52.797Z,16.38
2022-09-07T23:01:27.268Z,16.36
2022-09-07T23:04:01.650Z,16.33
2022-09-07T23:06:36.962Z,16.27
2022-09-07T23:09:12.124Z,16.25
2022-09-07T23:11:46.611Z,16.22
2022-09-07T23:14:22.409Z,16.22
2022-09-07T23:16:56.938Z,16.21
2022-09-07T23:19:30.164Z,16.19
2022-09-07T23:22:03.266Z,16.17
2022-09-07T23:24:37.101Z,16.13
2022-09-07T23:27:10.842Z,16.12
2022-09-07T23:29:44.521Z,16.10
2022-09-07T23:32:17.725Z,16.07
2022-09-07T23:34:54.064Z,16.03
2022-09-07T23:37:27.342Z,15.99
2022-09-07T23:40:00.591Z,15.95
2022-09-07T23:42:34.100Z,15.93
2022-09-07T23:45:08.480Z,15.87
2022-09-07T23:47:42.115Z,15.82
2022-09-07T23:50:15.765Z,15.80
2022-09-07T23:52:49.673Z,15.80
2022-09-07T23:55:23.238Z,15.78
2022-09-07T23:57:56.915Z,15.73
